KBTR

Baton Rouge Metropolitan, Ryan Field Airport

Baton Rouge, Louisiana, USA
METAR KBTR 242353Z COR 13004KT 10SM CLR 27/21 A3000 RMK AO2 SLP156 T02720211 10322 20272 58013
Observed Flight Rules
May-24 @ 23:53 UTC (an hour ago) Visual Flight Rules
Wind Visibility Clouds
130° at 4 knots 10 miles
  • Clear skies
Temperatures Readings
Current 27°C / 81°F
Dewpoint 21°C / 70°F
Humidity 70%
Altimeter 30" Hg
Pressure 1015.6 hPa
Elevation 21
METAR KBTR 242353Z COR 13004KT 10SM CLR 27/21 A3000 RMK AO2 SLP156 T02720211 10322 20272 58013
Observed Flight Rules
May-24 @ 23:53 UTC
(an hour ago)
VFR
Wind Visibility
130° at 4 knots 10 miles
Clouds
  • Clear skies
Temperature Dewpoint
27°C / 81°F 21°C / 70°F
Humidity Altimeter Pressure
70% 30" Hg 1015.6 hPa